Terminal Aerodrome Forecast
Issued by NWS

Home | Current Version | Previous Version | Text Only | Print | Product List | Glossary On
Versions: 1 2 3 4 5 6 7 8 9 10 11 12 13 14 15 16
687
FTUS46 KSEW 061749
TAFHQM
TAF
KHQM 061749Z 0618/0718 VRB03KT 5SM BR SCT035 BKN150
     FM062200 11005KT P6SM BKN100
     FM071000 08008KT P6SM VCSH SCT030 OVC050
     FM071400 07009KT P6SM SCT012 OVC020
      TEMPO 0714/0718 -RA=

USA.gov is the U.S. government's official web portal to all federal, state and local government web resources and services.